Tiempo atmosférico en la estación meteorológica de Hijar, Teruel (300 m.)



Fecha
DESCASC
Temp. máxima en grados centígrados (hora)
DESCASC
Temp. mínima en grados centígrados (hora)
DESCASC
Temp. media en grados centígrados
DESCASC
Racha de viento máxima en m/sg (hora)
DESCASC
Velocidad máxima media en intervalos de 10 minutos(hora)
DESCASC
Precipitaciones diarias en mm
DESCASC
Precipitaciones de 00:00 a 06:00 en mm
DESCASC
Precipitaciones de 06:00 a 12:00 en mm
DESCASC
Precipitaciones de 12:00 a 18:00 en mm
DESCASC
Precipitaciones de 18:00 a 24:00 en mm
DESCASC
23-05-2020 29.7 (16:50) 17 (06:00) 23.4 8.89 (22:20) 4.17 (09:30) 0 0 0 0 0
22-05-2020 33 (16:40) 15.9 (07:00) 24.4 9.72 (22:40) 6.39 (22:40) 0 0 0 0 0
21-05-2020 31.6 (17:40) 15.1 (00:00) 23.4 5.83 (03:10) 4.17 (00:40) 0 0 0 0 0
20-05-2020 30.6 (17:00) 13.6 (00:00) 22.1 6.39 (09:30) 3.89 (00:10) 0 0 0 0 0
19-05-2020 30.1 (17:40) 12.6 (07:00) 21.4 7.5 (13:40) 4.17 (21:50) 0 0 0 0 0
18-05-2020 27.8 (17:10) 11.9 (00:00) 19.8 7.5 (21:00) 4.44 (05:30) 0 0 0 0 0
17-05-2020 24.9 (17:40) 10.8 (00:00) 17.8 9.72 (02:00) 5.83 (01:50) 0 0 0 0 0
16-05-2020 20.8 (16:50) 10.3 (00:00) 15.5 9.17 (16:40) 5.28 (16:40) 9.8 1.8 0.2 0 7.8
15-05-2020 20.7 (15:00) 11 (07:00) 15.9 8.61 (03:20) 4.72 (02:30) 16 10.8 0.4 0 4.8
14-05-2020 15.3 (16:30) 12 (00:00) 13.7 5.56 (23:40) 3.89 (14:40) 14.6 0 1.6 10.4 2.6
13-05-2020 21.9 (17:30) 9.6 (00:00) 15.8 10 (00:30) 5.83 (00:30) 0 0 0 0 0
12-05-2020 20 (15:40) 11.6 (06:50) 15.8 6.94 (02:40) 4.44 (06:50) 2 0 0 0.2 1.8
11-05-2020 25.6 (17:30) 12.1 (00:00) 18.9 14.72 (10:50) 10.28 (13:00) 0.2 0 0.2 0 0
10-05-2020 17.2 (13:50) 12.9 (00:00) 15.1 10 (14:00) 5.83 (14:10) 15.8 1.4 7.8 6.4 0.2
09-05-2020 25.7 (14:30) 12.8 (04:20) 19.3 11.11 (17:00) 7.5 (17:00) 2 0 0 2 0
08-05-2020 28.2 (17:30) 12.3 (00:00) 20.3 12.22 (19:40) 8.06 (19:40) 0 0 0 0 0
07-05-2020 29.7 (16:00) 13.8 (00:00) 21.8 11.39 (15:10) 7.22 (21:20) 0 0 0 0 0
06-05-2020 31 (17:00) 13.9 (00:00) 22.4 6.39 (01:40) 4.72 (05:10) 0 0 0 0 0
05-05-2020 28.5 (16:40) 15 (00:00) 21.8 6.11 (11:20) 2.78 (11:20) 0 0 0 0 0
04-05-2020 30.5 (16:30) 14 (00:00) 22.3 10 (18:00) 6.67 (17:50) 0 0 0 0 0
03-05-2020 29.6 (17:10) 14.7 (07:10) 22.2 7.5 (15:10) 3.89 (03:30) 0 0 0 0 0
02-05-2020 30.7 (17:10) 16.3 (06:30) 23.5 13.06 (09:30) 7.78 (09:00) 0 0 0 0 0
01-05-2020 27.9 (15:10) 15.1 (00:00) 21.5 17.5 (13:00) 10.28 (13:20) 0 0 0 0 0
30-04-2020 24.8 (15:40) 14.3 (06:30) 19.5 12.78 (12:40) 7.78 (13:00) 0 0 0 0 0
29-04-2020 26.4 (17:10) 11.4 (00:00) 18.9 10.28 (23:40) 7.22 (23:40) 0 0 0 0 0
28-04-2020 22.6 (17:20) 10.4 (05:20) 16.5 13.61 (10:50) 8.61 (11:10) 0 0 0 0 0

Gráficas

Temp. máximas Temp. mínimas Temp. medias Precipitaciones Rachas de viento máximas Velocidades máximas media en intervalos de 10 minutos

Datos horarios

Fecha y hora oficial Temperatura (ºC) Velocidad del viento (km/h) Dirección del viento Racha (km/h) Dirección de racha Precipitación (mm) Presión (hPa) Tendencia (hPa) Humedad (%)
2020-05-27 23:00:00 -- -- -- -- -- -- -- -- --
2020-05-27 22:00:00 21 9 Sudeste 23 Sudeste 0 -- -- 54
2020-05-27 21:00:00 23.6 14 Sudeste 37 Sudeste 0 -- -- 46
2020-05-27 20:00:00 25.8 24 Este 32 Este 0 -- -- 38
2020-05-27 19:00:00 27 21 Este 36 Este 0 -- -- 37
2020-05-27 18:00:00 27.8 23 Este 32 Este 0 -- -- 36
2020-05-27 17:00:00 27.6 18 Este 40 Este 0 -- -- 39
2020-05-27 16:00:00 28.5 13 Este 23 Nordeste 0 -- -- 43
2020-05-27 15:00:00 27.5 8 Sudeste 25 Sudeste 0 -- -- 46
2020-05-27 14:00:00 26.8 14 Este 25 Nordeste 0 -- -- 52
2020-05-27 13:00:00 26.2 5 Nordeste 19 Nordeste 0 -- -- 55
2020-05-27 12:00:00 24.8 4 Norte 12 Nordeste 0 -- -- 59
2020-05-27 11:00:00 23.5 2 Norte 7 Norte 0 -- -- 62
2020-05-27 10:00:00 22.8 2 Noroeste 8 Oeste 0 -- -- 62
2020-05-27 09:00:00 19.4 4 Sudoeste 12 Sudoeste 0 -- -- 79
2020-05-27 08:00:00 17.5 6 Sudoeste 12 Sudoeste 0 -- -- 84
2020-05-27 07:00:00 15.8 8 Sudoeste 13 Oeste 0 -- -- 90
2020-05-27 06:00:00 15.7 6 Sudoeste 9 Sudoeste 0 -- -- 90
2020-05-27 05:00:00 15.9 3 Sur 10 Sudoeste 0 -- -- 88
2020-05-27 04:00:00 16.2 4 Sudoeste 8 Sudoeste 0 -- -- 87
2020-05-27 03:00:00 17.1 3 Oeste 13 Norte 0 -- -- 83
2020-05-27 02:00:00 18.4 3 Sudeste 13 Sudoeste 0 -- -- 79
2020-05-27 01:00:00 18.5 10 Sudoeste 14 Sudoeste 0 -- -- 78
2020-05-27 00:00:00 18.8 7 Sudoeste 12 Sudoeste 0 -- -- 79
2020-05-26 23:00:00 20.6 7 Sudoeste 12 Sudoeste 0 -- -- 70
2020-05-26 22:00:00 23.2 5 Sudeste 6 Sudeste 0 -- -- 57
2020-05-26 21:00:00 24.9 3 Nordeste 6 Nordeste 0 -- -- 51
2020-05-26 20:00:00 25.8 5 Nordeste 12 Este 0 -- -- 45
2020-05-26 19:00:00 26.8 3 Noroeste 9 Norte 0 -- -- 43
2020-05-26 18:00:00 27.1 6 Nordeste 14 Nordeste 0 -- -- 45
2020-05-26 17:00:00 27.7 5 Norte 16 Este 0 -- -- 45
2020-05-26 16:00:00 27 5 Nordeste 17 Este 0 -- -- 49
2020-05-26 15:00:00 25.9 6 Este 13 Nordeste 0 -- -- 52
2020-05-26 14:00:00 25.3 5 Norte 13 Nordeste 0 -- -- 56
2020-05-26 13:00:00 24.7 4 Norte 13 Nordeste 0 -- -- 60
2020-05-26 12:00:00 23.5 5 Nordeste 13 Norte 0 -- -- 66
2020-05-26 11:00:00 22.6 4 Norte 12 Norte 0 -- -- 65
2020-05-26 10:00:00 20.9 3 Noroeste 12 Oeste 0 -- -- 69
2020-05-26 09:00:00 18.9 3 Noroeste 13 Noroeste 0 -- -- 76
2020-05-26 08:00:00 16.7 2 Oeste 7 Oeste 0 -- -- 87
2020-05-26 07:00:00 16.3 0 Calma 7 Norte 0 -- -- 86
2020-05-26 06:00:00 16.9 2 Noroeste 11 Noroeste 0 -- -- 84
2020-05-26 05:00:00 17.6 3 Oeste 7 Oeste 0 -- -- 87
2020-05-26 04:00:00 17.9 2 Norte 8 Noroeste 0 -- -- 88
2020-05-26 03:00:00 18.5 0 Calma 5 Nordeste 0 -- -- 91
2020-05-26 02:00:00 18.7 3 Este 5 Sudoeste 0 -- -- 91
2020-05-26 01:00:00 18.6 0 Calma 4 Este 0 -- -- 90
2020-05-26 00:00:00 19.1 2 Nordeste 5 Nordeste 0 -- -- 88
2020-05-25 23:00:00 19.5 0 Calma 6 Sudoeste 0 -- -- 86
2020-05-25 22:00:00 19.9 5 Sudoeste 7 Sudoeste 0 -- -- 84
2020-05-25 21:00:00 20.6 3 Sudoeste 8 Oeste 0 -- -- 82
2020-05-25 20:00:00 21.5 3 Oeste 10 Oeste 0 -- -- 78
2020-05-25 19:00:00 22.3 3 Noroeste 9 Nordeste 0 -- -- 75
2020-05-25 18:00:00 22.4 5 Sudeste 12 Este 0 -- -- 76
2020-05-25 17:00:00 21.3 4 Nordeste 17 Este 0 -- -- 80
2020-05-25 16:00:00 19.1 8 Nordeste 19 Este 0.2 -- -- 90
2020-05-25 15:00:00 18.4 6 Nordeste 12 Nordeste 0.2 -- -- 92
2020-05-25 14:00:00 18.8 4 Norte 12 Noroeste 0 -- -- 91
2020-05-25 13:00:00 17.3 2 Noroeste 9 Este 1.2 -- -- 95
2020-05-25 12:00:00 17 6 Nordeste 12 Nordeste 3 -- -- 94
2020-05-25 11:00:00 16.9 0 Calma 4 Norte 0.2 -- -- 96
2020-05-25 10:00:00 16.4 0 Calma 14 Nordeste 2 -- -- 96
2020-05-25 09:00:00 16.3 3 Sur 16 Oeste 6.6 -- -- 95
2020-05-25 08:00:00 16.8 6 Noroeste 14 Oeste 0 -- -- 93
2020-05-25 07:00:00 16.8 0 Calma 3 Norte 0 -- -- 92
2020-05-25 06:00:00 16.9 0 Calma 3 Noroeste 0 -- -- 91
2020-05-25 05:00:00 17 0 Calma 6 Nordeste 0 -- -- 90
2020-05-25 04:00:00 17.3 4 Nordeste 8 Nordeste 1.2 -- -- 90
2020-05-25 03:00:00 17.8 0 Calma 5 Norte 0 -- -- 84
2020-05-25 02:00:00 18.3 3 Nordeste 9 Nordeste 0 -- -- 82
2020-05-25 01:00:00 19 2 Nordeste 13 Este 0 -- -- 78
2020-05-25 00:00:00 19.6 10 Este 13 Este 0 -- -- 75
2020-05-24 23:00:00 20.5 7 Este 11 Este 0 -- -- 71
2020-05-24 22:00:00 22.4 6 Este 10 Este 0 -- -- 65
2020-05-24 21:00:00 23.5 8 Nordeste 16 Nordeste 0 -- -- 59
2020-05-24 20:00:00 24.4 5 Norte 18 Nordeste 0 -- -- 56
2020-05-24 19:00:00 25.5 5 Norte 15 Nordeste 0 -- -- 52
2020-05-24 18:00:00 25.6 6 Este 14 Sudeste 0 -- -- 50
2020-05-24 17:00:00 25.6 6 Sur 17 Sur 0 -- -- 50
2020-05-24 16:00:00 24.6 9 Sudeste 17 Este 0 -- -- 53
2020-05-24 15:00:00 23.7 3 Este 15 Este 0 -- -- 54
2020-05-24 14:00:00 22 7 Este 12 Este 0 -- -- 54
2020-05-24 13:00:00 21.9 3 Sur 15 Norte 0 -- -- 55
2020-05-24 12:00:00 19.7 3 Noroeste 12 Noroeste 0 -- -- 58
2020-05-24 11:00:00 19.2 5 Noroeste 19 Norte 0.2 -- -- 61
2020-05-24 10:00:00 18 5 Noroeste 14 Oeste 0 -- -- 65
2020-05-24 09:00:00 15.4 6 Oeste 14 Oeste 0 -- -- 76
2020-05-24 08:00:00 13.3 5 Oeste 11 Oeste 0 -- -- 81
2020-05-24 07:00:00 12.5 8 Sudoeste 10 Sudoeste 0 -- -- 85
2020-05-24 06:00:00 12.8 6 Oeste 11 Oeste 0 -- -- 85
2020-05-24 05:00:00 13.1 5 Oeste 8 Oeste 0 -- -- 86
2020-05-24 04:00:00 14 4 Noroeste 15 Noroeste 0 -- -- 85
2020-05-24 03:00:00 14.4 7 Oeste 12 Oeste 0 -- -- 90
2020-05-24 02:00:00 14.2 7 Sudoeste 25 Noroeste 1.6 -- -- 90
2020-05-24 01:00:00 16.3 10 Noroeste 25 Oeste 0 -- -- 73
2020-05-24 00:00:00 17.5 13 Oeste 21 Oeste 0 -- -- 65
2020-05-23 23:00:00 18.4 11 Oeste 32 Oeste 0 -- -- 61
2020-05-23 22:00:00 19.5 10 Noroeste 27 Oeste 0 -- -- 59
2020-05-23 21:00:00 21.4 10 Noroeste 29 Noroeste 0 -- -- 55
2020-05-23 20:00:00 24.6 8 Noroeste 28 Norte 0 -- -- 50
2020-05-23 19:00:00 27 7 Noroeste 24 Norte 0 -- -- 47
2020-05-23 18:00:00 28.5 6 Noroeste 23 Noroeste 0 -- -- 45
2020-05-23 17:00:00 29.5 8 Noroeste 29 Noroeste 0 -- -- 46
2020-05-23 16:00:00 29.5 12 Noroeste 31 Noroeste 0 -- -- 46
2020-05-23 15:00:00 29.4 8 Noroeste 28 Noroeste 0 -- -- 48
2020-05-23 14:00:00 28.9 10 Noroeste 25 Oeste 0 -- -- 47
2020-05-23 13:00:00 27.5 9 Noroeste 21 Norte 0 -- -- 50
2020-05-23 12:00:00 26.4 8 Noroeste 23 Oeste 0 -- -- 53
2020-05-23 11:00:00 24.7 8 Noroeste 26 Norte 0 -- -- 57
2020-05-23 10:00:00 23.8 11 Noroeste 26 Oeste 0 -- -- 60
2020-05-23 09:00:00 21.3 12 Oeste 25 Oeste 0 -- -- 69
2020-05-23 08:00:00 18.8 6 Noroeste 15 Oeste 0 -- -- 80
2020-05-23 07:00:00 17.4 8 Oeste 18 Noroeste 0 -- -- 85
2020-05-23 06:00:00 17 8 Oeste 14 Oeste 0 -- -- 88
2020-05-23 05:00:00 17.6 8 Oeste 12 Noroeste 0 -- -- 84
2020-05-23 04:00:00 18.8 0 Calma 7 Nordeste 0 -- -- 78
2020-05-23 03:00:00 19.6 3 Nordeste 11 Nordeste 0 -- -- 74
2020-05-23 02:00:00 21.2 7 Este 12 Este 0 -- -- 62
2020-05-23 01:00:00 22.3 8 Nordeste 12 Nordeste 0 -- -- 56
2020-05-23 00:00:00 24 6 Este 27 Sur 0 -- -- 51
2020-05-22 23:00:00 27 22 Sur 35 Sudeste 0 -- -- 38
2020-05-22 22:00:00 26.3 14 Sudeste 21 Sudeste 0 -- -- 48
2020-05-22 21:00:00 28.8 11 Sudeste 26 Sudeste 0 -- -- 45
2020-05-22 20:00:00 30.9 15 Este 26 Este 0 -- -- 34
2020-05-22 19:00:00 31.9 16 Este 26 Este 0 -- -- 31
2020-05-22 18:00:00 32.4 14 Este 28 Nordeste 0 -- -- 32
2020-05-22 17:00:00 32.9 14 Este 23 Este 0 -- -- 31
2020-05-22 16:00:00 32.9 9 Nordeste 23 Nordeste 0 -- -- 34
2020-05-22 15:00:00 32 10 Este 21 Nordeste 0 -- -- 35
2020-05-22 14:00:00 31 8 Nordeste 14 Nordeste 0 -- -- 41
2020-05-22 13:00:00 29.8 4 Norte 14 Nordeste 0 -- -- 46
2020-05-22 12:00:00 28.2 3 Norte 10 Noroeste 0 -- -- 49
2020-05-22 11:00:00 26.2 4 Norte 9 Oeste 0 -- -- 54
2020-05-22 10:00:00 23.9 5 Oeste 11 Oeste 0 -- -- 60
2020-05-22 09:00:00 21.2 3 Oeste 9 Oeste 0 -- -- 69
2020-05-22 08:00:00 17.8 4 Sudoeste 8 Sudoeste 0 -- -- 77
2020-05-22 07:00:00 15.9 4 Sudoeste 5 Oeste 0 -- -- 81
2020-05-22 06:00:00 17.3 0 Calma 9 Sudoeste 0 -- -- 75
2020-05-22 05:00:00 17.1 6 Sudoeste 12 Sudoeste 0 -- -- 76
2020-05-22 04:00:00 17.5 5 Sudoeste 10 Sudoeste 0 -- -- 74
2020-05-22 03:00:00 18.5 9 Sudoeste 13 Sudoeste 0 -- -- 71
2020-05-22 02:00:00 19.1 3 Sudoeste 5 Sudoeste 0 -- -- 68
2020-05-22 01:00:00 20.6 3 Este 12 Sudoeste 0 -- -- 61
2020-05-22 00:00:00 21.4 10 Sudoeste 17 Sudoeste 0 -- -- 57
2020-05-21 23:00:00 22.7 9 Sudoeste 15 Sudoeste 0 -- -- 53
2020-05-21 22:00:00 25.4 6 Sudoeste 11 Sudoeste 0 -- -- 43
2020-05-21 21:00:00 27.6 7 Sudeste 10 Sudeste 0 -- -- 38
2020-05-21 20:00:00 29.2 5 Sudeste 9 Este 0 -- -- 34
2020-05-21 19:00:00 30 3 Norte 11 Nordeste 0 -- -- 34
2020-05-21 18:00:00 31.1 5 Norte 13 Nordeste 0 -- -- 32
2020-05-21 17:00:00 31 4 Nordeste 14 Este 0 -- -- 34
2020-05-21 16:00:00 29.9 4 Nordeste 14 Nordeste 0 -- -- 36
2020-05-21 15:00:00 29.5 6 Norte 14 Norte 0 -- -- 38
2020-05-21 14:00:00 29.2 4 Noroeste 15 Noroeste 0 -- -- 39
2020-05-21 13:00:00 27.3 4 Noroeste 11 Oeste 0 -- -- 44
2020-05-21 12:00:00 26.8 6 Noroeste 13 Norte 0 -- -- 41
2020-05-21 11:00:00 25.1 3 Noroeste 11 Norte 0 -- -- 42
2020-05-21 10:00:00 23.9 5 Noroeste 16 Noroeste 0 -- -- 46
2020-05-21 09:00:00 20.6 6 Sudoeste 15 Sudoeste 0 -- -- 57
2020-05-21 08:00:00 16.8 10 Sudoeste 17 Sudoeste 0 -- -- 70
2020-05-21 07:00:00 15.1 14 Sudoeste 18 Sudoeste 0 -- -- 75
2020-05-21 06:00:00 15.8 14 Sudoeste 18 Sudoeste 0 -- -- 72
2020-05-21 05:00:00 16.4 12 Sudoeste 17 Sudoeste 0 -- -- 70
2020-05-21 04:00:00 16.9 13 Sudoeste 21 Sudoeste 0 -- -- 69
2020-05-21 03:00:00 17.2 13 Sudoeste 18 Sudoeste 0 -- -- 69
2020-05-21 02:00:00 18.1 7 Sudoeste 17 Sudoeste 0 -- -- 66
2020-05-21 01:00:00 18.7 12 Oeste 19 Sudoeste 0 -- -- 64
2020-05-21 00:00:00 19.7 12 Sudoeste 18 Sudoeste 0 -- -- 62
2020-05-20 23:00:00 21 13 Sudoeste 17 Sudoeste 0 -- -- 59
2020-05-20 22:00:00 23.5 7 Sudoeste 11 Sudoeste 0 -- -- 50
2020-05-20 21:00:00 26.8 0 Calma 6 Noroeste 0 -- -- 41
2020-05-20 20:00:00 28.2 2 Noroeste 11 Nordeste 0 -- -- 33
2020-05-20 19:00:00 29.1 4 Norte 12 Este 0 -- -- 33
2020-05-20 18:00:00 30.5 5 Oeste 12 Norte 0 -- -- 33
2020-05-20 17:00:00 30.6 6 Norte 15 Noroeste 0 -- -- 33
2020-05-20 16:00:00 29.9 6 Norte 19 Noroeste 0 -- -- 36
2020-05-20 15:00:00 28.9 4 Norte 16 Norte 0 -- -- 37
2020-05-20 14:00:00 28.3 5 Norte 16 Oeste 0 -- -- 38
2020-05-20 13:00:00 27.3 5 Norte 18 Noroeste 0 -- -- 45
2020-05-20 12:00:00 26.2 5 Noroeste 19 Sudoeste 0 -- -- 44
2020-05-20 11:00:00 24.6 6 Noroeste 20 Oeste 0 -- -- 47
2020-05-20 10:00:00 22.3 7 Noroeste 23 Oeste 0 -- -- 53
2020-05-20 09:00:00 18.9 7 Oeste 13 Sudoeste 0 -- -- 63
2020-05-20 08:00:00 15.4 9 Sudoeste 16 Sudoeste 0 -- -- 74
2020-05-20 07:00:00 13.6 13 Sudoeste 17 Sudoeste 0 -- -- 79
2020-05-20 06:00:00 15.4 12 Sudoeste 16 Sudoeste 0 -- -- 69
2020-05-20 05:00:00 15.7 13 Sudoeste 17 Sudoeste 0 -- -- 69
2020-05-20 04:00:00 16.2 12 Sudoeste 20 Sudoeste 0 -- -- 67
2020-05-20 03:00:00 16.5 10 Sudoeste 14 Sudoeste 0 -- -- 68
2020-05-20 02:00:00 17.5 6 Sudoeste 14 Oeste 0 -- -- 64
2020-05-20 01:00:00 18.9 9 Oeste 19 Sudoeste 0 -- -- 60
2020-05-20 00:00:00 20 14 Sudoeste 24 Sudoeste 0 -- -- 58
2020-05-19 23:00:00 20.5 12 Sudoeste 24 Sudoeste 0 -- -- 57
2020-05-19 22:00:00 21.9 13 Oeste 23 Oeste 0 -- -- 53
2020-05-19 21:00:00 24 4 Noroeste 19 Oeste 0 -- -- 46
2020-05-19 20:00:00 26.5 7 Noroeste 18 Noroeste 0 -- -- 41
2020-05-19 19:00:00 28 7 Noroeste 19 Oeste 0 -- -- 37
2020-05-19 18:00:00 29.3 7 Noroeste 25 Noroeste 0 -- -- 35
2020-05-19 17:00:00 29.4 7 Noroeste 24 Oeste 0 -- -- 34
2020-05-19 16:00:00 29 7 Noroeste 26 Oeste 0 -- -- 34
2020-05-19 15:00:00 28.2 7 Noroeste 25 Oeste 0 -- -- 40
2020-05-19 14:00:00 27.1 9 Noroeste 27 Oeste 0 -- -- 42
2020-05-19 13:00:00 25.2 8 Noroeste 26 Oeste 0 -- -- 46
2020-05-19 12:00:00 23.7 8 Noroeste 26 Oeste 0 -- -- 47
2020-05-19 11:00:00 22.1 9 Noroeste 23 Noroeste 0 -- -- 49
2020-05-19 10:00:00 20.2 10 Noroeste 23 Oeste 0 -- -- 54
2020-05-19 09:00:00 18 5 Noroeste 15 Sudoeste 0 -- -- 63
2020-05-19 08:00:00 14.1 12 Sudoeste 17 Sudoeste 0 -- -- 71
2020-05-19 07:00:00 12.6 12 Sudoeste 14 Sudoeste 0 -- -- 75
2020-05-19 06:00:00 13 10 Sudoeste 17 Sudoeste 0 -- -- 73
2020-05-19 05:00:00 13.3 10 Sudoeste 16 Sudoeste 0 -- -- 72
2020-05-19 04:00:00 13.9 10 Sudoeste 16 Sudoeste 0 -- -- 70
2020-05-19 03:00:00 14.6 11 Sudoeste 18 Sudoeste 0 -- -- 67
2020-05-19 02:00:00 15.2 10 Sudoeste 16 Oeste 0 -- -- 66
2020-05-19 01:00:00 15.9 9 Oeste 21 Oeste 0 -- -- 65
2020-05-19 00:00:00 17 14 Oeste 27 Oeste 0 -- -- 61
2020-05-18 23:00:00 18 13 Oeste 26 Noroeste 0 -- -- 59
2020-05-18 22:00:00 19.4 13 Oeste 26 Oeste 0 -- -- 54
2020-05-18 21:00:00 21.6 12 Oeste 27 Oeste 0 -- -- 49
2020-05-18 20:00:00 23.8 6 Noroeste 24 Oeste 0 -- -- 41
2020-05-18 19:00:00 25.6 8 Noroeste 23 Norte 0 -- -- 40
2020-05-18 18:00:00 26.7 9 Noroeste 23 Oeste 0 -- -- 39
2020-05-18 17:00:00 27.2 6 Noroeste 21 Oeste 0 -- -- 39
2020-05-18 16:00:00 27.1 8 Noroeste 24 Oeste 0 -- -- 38
2020-05-18 15:00:00 26 8 Noroeste 22 Noroeste 0 -- -- 41
2020-05-18 14:00:00 24.8 7 Noroeste 24 Oeste 0 -- -- 42
2020-05-18 13:00:00 23.1 12 Oeste 26 Oeste 0 -- -- 45
2020-05-18 12:00:00 21.5 11 Oeste 25 Oeste 0 -- -- 46
2020-05-18 11:00:00 20.3 6 Noroeste 25 Oeste 0 -- -- 50
2020-05-18 10:00:00 18.4 9 Noroeste 25 Oeste 0 -- -- 53
2020-05-18 09:00:00 16.1 14 Oeste 22 Oeste 0 -- -- 58
2020-05-18 08:00:00 13.6 8 Sudoeste 19 Sudoeste 0 -- -- 65
2020-05-18 07:00:00 12.2 13 Oeste 23 Oeste 0 -- -- 67
2020-05-18 06:00:00 12.2 15 Oeste 23 Oeste 0 -- -- 68
2020-05-18 05:00:00 12 13 Oeste 19 Oeste 0 -- -- 70
2020-05-18 04:00:00 12.1 13 Sudoeste 17 Sudoeste 0 -- -- 73
2020-05-18 03:00:00 12.7 10 Sudoeste 17 Oeste 0 -- -- 73
2020-05-18 02:00:00 13.6 12 Oeste 22 Oeste 0 -- -- 71
2020-05-18 01:00:00 14.5 13 Sudoeste 22 Sudoeste 0 -- -- 69
2020-05-18 00:00:00 15.3 13 Sudoeste 21 Oeste 0 -- -- 67
2020-05-17 23:00:00 16.3 11 Oeste 20 Oeste 0 -- -- 64
2020-05-17 22:00:00 17.4 10 Oeste 18 Oeste 0 -- -- 62
2020-05-17 21:00:00 19.5 7 Noroeste 18 Noroeste 0 -- -- 54
2020-05-17 20:00:00 21.7 8 Noroeste 24 Oeste 0 -- -- 49
2020-05-17 19:00:00 23.3 5 Noroeste 19 Oeste 0 -- -- 45
2020-05-17 18:00:00 24.3 8 Noroeste 24 Oeste 0 -- -- 42
2020-05-17 17:00:00 24.1 6 Norte 24 Norte 0 -- -- 47
2020-05-17 16:00:00 24.2 8 Oeste 24 Oeste 0 -- -- 50
2020-05-17 15:00:00 23.3 8 Noroeste 24 Noroeste 0 -- -- 48
2020-05-17 14:00:00 22.6 6 Noroeste 27 Oeste 0 -- -- 50
2020-05-17 13:00:00 20.9 8 Noroeste 20 Oeste 0 -- -- 52
2020-05-17 12:00:00 19.8 7 Noroeste 23 Oeste 0 -- -- 55
2020-05-17 11:00:00 18.2 7 Noroeste 20 Oeste 0 -- -- 58
2020-05-17 10:00:00 16.3 10 Oeste 32 Oeste 0 -- -- 62
2020-05-17 09:00:00 14.3 10 Oeste 24 Oeste 0 -- -- 68
2020-05-17 08:00:00 11.8 11 Sudoeste 20 Oeste 0 -- -- 73
2020-05-17 07:00:00 10.8 10 Oeste 24 Oeste 0 -- -- 77
2020-05-17 06:00:00 11.5 13 Oeste 26 Oeste 0 -- -- 76
2020-05-17 05:00:00 11.5 15 Oeste 26 Oeste 0 -- -- 78
2020-05-17 04:00:00 11.8 15 Oeste 27 Noroeste 0 -- -- 78
2020-05-17 03:00:00 12.5 12 Oeste 30 Oeste 0 -- -- 76
2020-05-17 02:00:00 12.7 19 Oeste 35 Oeste 0 -- -- 76
2020-05-17 01:00:00 13 13 Oeste 32 Noroeste 0 -- -- 77
2020-05-17 00:00:00 13.2 12 Oeste 25 Oeste 0 -- -- 77
2020-05-16 23:00:00 14 11 Oeste 27 Oeste 0.4 -- -- 78
2020-05-16 22:00:00 14.7 11 Oeste 24 Noroeste 0 -- -- 79
2020-05-16 21:00:00 14.9 11 Oeste 25 Oeste 0 -- -- 84
2020-05-16 20:00:00 14.7 11 Oeste 21 Sudoeste 4.4 -- -- 91
2020-05-16 19:00:00 15 4 Noroeste 30 Oeste 3 -- -- 90
2020-05-16 18:00:00 18.8 12 Oeste 33 Oeste 0 -- -- 67
2020-05-16 17:00:00 19.9 16 Oeste 33 Oeste 0 -- -- 63
2020-05-16 16:00:00 19.8 13 Oeste 28 Oeste 0 -- -- 65
2020-05-16 15:00:00 17.9 12 Oeste 30 Oeste 0 -- -- 70
2020-05-16 14:00:00 17.2 11 Oeste 24 Oeste 0 -- -- 68
2020-05-16 13:00:00 15.7 6 Noroeste 22 Oeste 0 -- -- 73
2020-05-16 12:00:00 15.3 7 Noroeste 20 Oeste 0 -- -- 75
2020-05-16 11:00:00 14.7 7 Oeste 18 Oeste 0 -- -- 79
2020-05-16 10:00:00 13.5 6 Noroeste 21 Oeste 0 -- -- 81
2020-05-16 09:00:00 12.4 8 Oeste 14 Oeste 0 -- -- 88
2020-05-16 08:00:00 10.8 7 Oeste 17 Oeste 0 -- -- 90
2020-05-16 07:00:00 10.5 9 Oeste 18 Oeste 0.2 -- -- 90
2020-05-16 06:00:00 10.7 10 Oeste 14 Oeste 0.2 -- -- 90
2020-05-16 05:00:00 10.4 4 Sudoeste 16 Oeste 0 -- -- 93
2020-05-16 04:00:00 10.3 8 Oeste 18 Oeste 0 -- -- 95
2020-05-16 03:00:00 10.8 9 Oeste 22 Oeste 0.2 -- -- 95
2020-05-16 02:00:00 11.3 7 Oeste 20 Noroeste 0.4 -- -- 96
2020-05-16 01:00:00 11.5 10 Oeste 24 Oeste 1 -- -- 95
2020-05-16 00:00:00 11.9 10 Oeste 18 Oeste 2.8 -- -- 95
2020-05-15 23:00:00 12.5 14 Oeste 24 Noroeste 0.8 -- -- 93
2020-05-15 22:00:00 13.6 9 Noroeste 23 Oeste 0.6 -- -- 90
2020-05-15 21:00:00 15.2 5 Noroeste 15 Oeste 0.6 -- -- 86
2020-05-15 20:00:00 16.7 5 Noroeste 18 Noroeste 0 -- -- 78
2020-05-15 19:00:00 18.5 5 Noroeste 14 Oeste 0 -- -- 70
2020-05-15 18:00:00 18.1 3 Noroeste 12 Norte 0 -- -- 71
2020-05-15 17:00:00 18.9 5 Norte 15 Norte 0 -- -- 66
2020-05-15 16:00:00 19.8 6 Norte 18 Norte 0 -- -- 65
2020-05-15 15:00:00 20.7 5 Noroeste 19 Norte 0 -- -- 62
2020-05-15 14:00:00 18.8 4 Noroeste 22 Noroeste 0 -- -- 72
2020-05-15 13:00:00 17.5 5 Noroeste 19 Norte 0 -- -- 71
2020-05-15 12:00:00 18.3 8 Noroeste 20 Norte 0 -- -- 70
2020-05-15 11:00:00 15.5 5 Noroeste 27 Oeste 0 -- -- 77
2020-05-15 10:00:00 13.8 11 Oeste 22 Oeste 0 -- -- 84
2020-05-15 09:00:00 12 10 Oeste 21 Oeste 0 -- -- 92
2020-05-15 08:00:00 11.4 10 Sudoeste 16 Sudoeste 0.2 -- -- 96
2020-05-15 07:00:00 11 11 Oeste 17 Noroeste 0.2 -- -- 97
2020-05-15 06:00:00 11.2 10 Oeste 22 Oeste 0.8 -- -- 97
2020-05-15 05:00:00 11.5 12 Oeste 19 Oeste 1 -- -- 97
2020-05-15 04:00:00 11.5 10 Oeste 31 Oeste 4 -- -- 97
2020-05-15 03:00:00 11.8 10 Noroeste 28 Noroeste 2.8 -- -- 96
2020-05-15 02:00:00 11.9 11 Sudoeste 17 Sudoeste 1.6 -- -- 96
2020-05-15 01:00:00 12.2 9 Oeste 18 Oeste 0.6 -- -- 96
2020-05-15 00:00:00 12.4 11 Oeste 20 Oeste 0.4 -- -- 95
2020-05-14 23:00:00 13 7 Oeste 17 Oeste 0.6 -- -- 94
2020-05-14 22:00:00 13.3 0 Calma 3 Sudoeste 0.4 -- -- 95
2020-05-14 21:00:00 13.4 0 Calma 5 Oeste 0.4 -- -- 93
2020-05-14 20:00:00 13.6 2 Noroeste 8 Oeste 0.8 -- -- 90
2020-05-14 19:00:00 14.1 2 Noroeste 9 Este 0 -- -- 86
2020-05-14 18:00:00 14.7 2 Norte 9 Noroeste 0.2 -- -- 80
2020-05-14 17:00:00 15.3 2 Noroeste 11 Sudoeste 0 -- -- 79
2020-05-14 16:00:00 14.9 5 Sudoeste 15 Oeste 0 -- -- 84
2020-05-14 15:00:00 13.9 12 Sudoeste 19 Sudoeste 0.6 -- -- 90
2020-05-14 14:00:00 13.8 4 Sudoeste 12 Sur 2.6 -- -- 93
2020-05-14 13:00:00 14 3 Este 13 Este 7 -- -- 92
2020-05-14 12:00:00 14.2 7 Este 10 Este 1.6 -- -- 88
2020-05-14 11:00:00 15.1 3 Noroeste 7 Noroeste 0 -- -- 82
2020-05-14 10:00:00 14.2 3 Noroeste 9 Oeste 0 -- -- 86
2020-05-14 09:00:00 13.6 3 Este 6 Este 0 -- -- 86
2020-05-14 08:00:00 12.7 2 Norte 10 Sudoeste 0 -- -- 90
2020-05-14 07:00:00 12.1 7 Oeste 12 Sudoeste 0 -- -- 89
2020-05-14 06:00:00 12.2 6 Sudoeste 9 Sudoeste 0 -- -- 88
2020-05-14 05:00:00 12.4 4 Sudoeste 12 Sudoeste 0 -- -- 87
2020-05-14 04:00:00 12.4 9 Sudoeste 13 Oeste 0 -- -- 87
2020-05-14 03:00:00 12.7 4 Sudoeste 9 Oeste 0 -- -- 86
2020-05-14 02:00:00 13.2 4 Sudoeste 10 Oeste 0 -- -- 83
2020-05-14 01:00:00 13.2 5 Sudoeste 9 Sudoeste 0 -- -- 83
2020-05-14 00:00:00 14.1 6 Sudoeste 12 Sudoeste 0 -- -- 80
2020-05-13 23:00:00 15.2 4 Sur 13 Sudoeste 0 -- -- 75
2020-05-13 22:00:00 17.3 4 Este 6 Este 0 -- -- 65
2020-05-13 21:00:00 18.8 2 Este 10 Noroeste 0 -- -- 61
2020-05-13 20:00:00 20 4 Noroeste 15 Norte 0 -- -- 54
2020-05-13 19:00:00 21.1 3 Noroeste 15 Norte 0 -- -- 54
2020-05-13 18:00:00 21.8 5 Noroeste 21 Noroeste 0 -- -- 52
2020-05-13 17:00:00 21.2 5 Noroeste 19 Oeste 0 -- -- 51
2020-05-13 16:00:00 20.4 5 Noroeste 18 Oeste 0 -- -- 54
2020-05-13 15:00:00 20.5 3 Norte 18 Noroeste 0 -- -- 53
2020-05-13 14:00:00 20.6 6 Noroeste 21 Oeste 0 -- -- 52
2020-05-13 13:00:00 19.2 5 Noroeste 19 Noroeste 0 -- -- 59
2020-05-13 12:00:00 20.6 16 Oeste 31 Oeste 0 -- -- 52
2020-05-13 11:00:00 18.5 9 Noroeste 24 Oeste 0 -- -- 60
2020-05-13 10:00:00 17.5 12 Oeste 25 Oeste 0 -- -- 62
2020-05-13 09:00:00 14.6 5 Oeste 17 Sudoeste 0 -- -- 74
2020-05-13 08:00:00 10.7 9 Sudoeste 12 Oeste 0 -- -- 87
2020-05-13 07:00:00 9.7 7 Sudoeste 12 Sudoeste 0 -- -- 91
2020-05-13 06:00:00 10.2 4 Sudoeste 7 Sudoeste 0 -- -- 89
2020-05-13 05:00:00 11.1 4 Sudeste 9 Sudoeste 0 -- -- 85
2020-05-13 04:00:00 11.6 4 Sur 10 Oeste 0 -- -- 89
2020-05-13 03:00:00 12.8 3 Norte 18 Sudeste 0 -- -- 86
2020-05-13 02:00:00 13 3 Sudoeste 15 Sur 0 -- -- 81
2020-05-13 01:00:00 13.3 7 Sur 36 Oeste 0 -- -- 82
2020-05-13 00:00:00 14.5 5 Sudeste 10 Sudeste 0 -- -- 92
2020-05-12 23:00:00 14.5 4 Sudeste 5 Sudeste 0 -- -- 93
2020-05-12 22:00:00 14.6 2 Sudoeste 5 Sudoeste 0 -- -- 92
2020-05-12 21:00:00 14.8 3 Oeste 9 Oeste 0 -- -- 91
2020-05-12 20:00:00 15.2 5 Oeste 13 Oeste 1 -- -- 90
2020-05-12 19:00:00 16.4 4 Noroeste 8 Oeste 0.8 -- -- 83
2020-05-12 18:00:00 17.3 4 Nordeste 17 Nordeste 0.2 -- -- 77
2020-05-12 17:00:00 19 5 Este 13 Nordeste 0 -- -- 62
2020-05-12 16:00:00 19.7 8 Nordeste 15 Nordeste 0 -- -- 60
2020-05-12 15:00:00 17.4 0 Calma 5 Sur 0 -- -- 65
2020-05-12 14:00:00 17.3 2 Sudeste 8 Nordeste 0 -- -- 62
2020-05-12 13:00:00 16.7 4 Norte 12 Nordeste 0 -- -- 69
2020-05-12 12:00:00 16.8 5 Nordeste 13 Este 0 -- -- 68
2020-05-12 11:00:00 16.8 4 Norte 10 Nordeste 0 -- -- 70
2020-05-12 10:00:00 17.1 4 Norte 11 Norte 0 -- -- 65
2020-05-12 09:00:00 14.9 4 Sudoeste 12 Oeste 0 -- -- 75
2020-05-12 08:00:00 13.3 6 Sudoeste 16 Sudoeste 0 -- -- 78
2020-05-12 07:00:00 11.7 13 Sudoeste 21 Sudoeste 0 -- -- 84
2020-05-12 06:00:00 12.4 8 Sudoeste 13 Sudoeste 0 -- -- 80
2020-05-12 05:00:00 12.7 7 Oeste 15 Oeste 0 -- -- 79
2020-05-12 04:00:00 13.3 9 Sudoeste 20 Oeste 0 -- -- 78
2020-05-12 03:00:00 14.1 14 Oeste 25 Oeste 0 -- -- 76
2020-05-12 02:00:00 14.1 7 Oeste 14 Oeste 0 -- -- 76
2020-05-12 01:00:00 15.1 8 Sudoeste 19 Oeste 0 -- -- 71
2020-05-12 00:00:00 15.9 11 Oeste 17 Oeste 0 -- -- 69
2020-05-11 23:00:00 16.5 8 Oeste 20 Oeste 0 -- -- 65
2020-05-11 22:00:00 18.2 8 Noroeste 28 Oeste 0 -- -- 61
2020-05-11 21:00:00 19.4 19 Sudoeste 37 Oeste 0 -- -- 53
2020-05-11 20:00:00 21.3 13 Oeste 25 Oeste 0 -- -- 49
2020-05-11 19:00:00 22.6 13 Oeste 33 Oeste 0 -- -- 43
2020-05-11 18:00:00 24.8 15 Oeste 38 Oeste 0 -- -- 38
2020-05-11 17:00:00 24.6 19 Oeste 43 Oeste 0 -- -- 39
2020-05-11 16:00:00 25.2 22 Oeste 38 Oeste 0 -- -- 37
2020-05-11 15:00:00 24.2 19 Oeste 46 Oeste 0 -- -- 42
2020-05-11 14:00:00 24.4 15 Noroeste 45 Oeste 0 -- -- 44
2020-05-11 13:00:00 21.9 37 Oeste 51 Oeste 0 -- -- 41
2020-05-11 12:00:00 21.3 24 Oeste 52 Oeste 0 -- -- 48
2020-05-11 11:00:00 19.6 29 Oeste 53 Oeste 0 -- -- 51
2020-05-11 10:00:00 16.9 29 Oeste 44 Oeste 0.2 -- -- 62
2020-05-11 09:00:00 16.6 4 Noroeste 13 Oeste 0 -- -- 69
2020-05-11 08:00:00 14.1 10 Oeste 18 Sudoeste 0 -- -- 76
2020-05-11 07:00:00 12.3 9 Sudoeste 14 Oeste 0 -- -- 84
2020-05-11 06:00:00 12.9 7 Oeste 19 Oeste 0 -- -- 81
2020-05-11 05:00:00 13.3 11 Oeste 20 Oeste 0 -- -- 80
2020-05-11 04:00:00 13.8 13 Oeste 20 Oeste 0 -- -- 79
2020-05-11 03:00:00 13.7 8 Oeste 17 Sudoeste 0 -- -- 82
2020-05-11 02:00:00 14 12 Sudoeste 17 Sudoeste 0 -- -- 79
2020-05-11 01:00:00 13.9 12 Sudoeste 22 Oeste 0 -- -- 79
2020-05-11 00:00:00 13.5 16 Oeste 26 Oeste 0 -- -- 81
2020-05-10 23:00:00 13.7 17 Oeste 26 Oeste 0 -- -- 82
2020-05-10 22:00:00 13.6 12 Oeste 26 Oeste 0 -- -- 85
2020-05-10 21:00:00 14.3 5 Noroeste 30 Norte 0 -- -- 84
2020-05-10 20:00:00 15.2 3 Sudoeste 12 Sudoeste 0 -- -- 84
2020-05-10 19:00:00 14.4 5 Sudoeste 21 Sudoeste 0.2 -- -- 85
2020-05-10 18:00:00 12.9 14 Sudoeste 25 Oeste 1.2 -- -- 93
2020-05-10 17:00:00 13.1 14 Oeste 22 Oeste 1.4 -- -- 94
2020-05-10 16:00:00 14.1 8 Oeste 19 Oeste 0 -- -- 92
2020-05-10 15:00:00 13.5 7 Noroeste 31 Sudoeste 3.4 -- -- 92
2020-05-10 14:00:00 16.8 21 Sudoeste 36 Sudoeste 0 -- -- 77
2020-05-10 13:00:00 15.4 8 Sur 14 Sur 0.4 -- -- 90
2020-05-10 12:00:00 13.9 9 Sudeste 23 Sudeste 1.2 -- -- 94
2020-05-10 11:00:00 13.9 11 Este 18 Sur 2.4 -- -- 93
2020-05-10 10:00:00 13.5 9 Sur 18 Sur 0.8 -- -- 92
2020-05-10 09:00:00 13.2 5 Sur 18 Sudoeste 1.6 -- -- 95
2020-05-10 08:00:00 13.7 12 Sudoeste 18 Sudoeste 1.4 -- -- 94
2020-05-10 07:00:00 15.1 6 Sudoeste 14 Oeste 0.4 -- -- 96
2020-05-10 06:00:00 15.2 6 Oeste 11 Oeste 0 -- -- 96
2020-05-10 05:00:00 15.2 5 Sur 8 Sudoeste 0.4 -- -- 96
2020-05-10 04:00:00 15.1 4 Oeste 10 Oeste 0.8 -- -- 95
2020-05-10 03:00:00 15.2 2 Sudeste 6 Sur 0.2 -- -- 93
2020-05-10 02:00:00 15.1 5 Sudoeste 9 Sudoeste 0 -- -- 92
2020-05-10 01:00:00 15.3 2 Sur 6 Sudoeste 0 -- -- 91
2020-05-10 00:00:00 16 2 Este 10 Nordeste 0 -- -- 88
2020-05-09 23:00:00 16.9 9 Nordeste 20 Nordeste 0 -- -- 85
2020-05-09 22:00:00 17.8 14 Nordeste 23 Nordeste 0 -- -- 81
2020-05-09 21:00:00 19.1 7 Nordeste 17 Este 0 -- -- 79
2020-05-09 20:00:00 20.2 12 Nordeste 16 Este 0 -- -- 74
2020-05-09 19:00:00 20.7 4 Nordeste 19 Sur 0 -- -- 76
2020-05-09 18:00:00 20.4 8 Este 33 Este 0 -- -- 74
2020-05-09 17:00:00 20.5 27 Este 40 Este 1.4 -- -- 73
2020-05-09 16:00:00 21 4 Norte 35 Nordeste 0.6 -- -- 70
2020-05-09 15:00:00 24.1 14 Nordeste 33 Este 0 -- -- 51
2020-05-09 14:00:00 25.4 12 Este 21 Este 0 -- -- 44
2020-05-09 13:00:00 23.8 8 Nordeste 17 Sudeste 0 -- -- 47
2020-05-09 12:00:00 23.3 5 Norte 14 Oeste 0 -- -- 54
2020-05-09 11:00:00 21.9 4 Sudoeste 9 Sur 0 -- -- 61
2020-05-09 10:00:00 18.9 4 Noroeste 13 Nordeste 0 -- -- 72
2020-05-09 09:00:00 16.4 4 Oeste 14 Sur 0 -- -- 85
2020-05-09 08:00:00 14.2 9 Noroeste 19 Norte 0 -- -- 92
2020-05-09 07:00:00 13.7 2 Noroeste 22 Sudoeste 0 -- -- 91
2020-05-09 06:00:00 13.6 5 Oeste 17 Sudoeste 0 -- -- 89
2020-05-09 05:00:00 13.1 7 Sudoeste 15 Oeste 0 -- -- 88
2020-05-09 04:00:00 13.2 5 Oeste 10 Oeste 0 -- -- 84
2020-05-09 03:00:00 14.5 0 Calma 9 Nordeste 0 -- -- 78
2020-05-09 02:00:00 15.5 7 Nordeste 9 Nordeste 0 -- -- 78
2020-05-09 01:00:00 16.4 5 Este 18 Nordeste 0 -- -- 71
2020-05-09 00:00:00 17.8 12 Nordeste 28 Este 0 -- -- 63
2020-05-08 23:00:00 18.5 12 Este 27 Este 0 -- -- 63
2020-05-08 22:00:00 19.8 14 Este 25 Este 0 -- -- 57
2020-05-08 21:00:00 22.4 16 Este 36 Este 0 -- -- 46
2020-05-08 20:00:00 24.1 29 Nordeste 44 Nordeste 0 -- -- 44
2020-05-08 19:00:00 26 22 Nordeste 37 Nordeste 0 -- -- 45
2020-05-08 18:00:00 27 21 Nordeste 32 Nordeste 0 -- -- 40
2020-05-08 17:00:00 27.4 16 Este 30 Nordeste 0 -- -- 37
2020-05-08 16:00:00 27.7 13 Este 27 Este 0 -- -- 36
2020-05-08 15:00:00 26.5 13 Este 29 Nordeste 0 -- -- 40
2020-05-08 14:00:00 25.3 12 Nordeste 27 Nordeste 0 -- -- 44
2020-05-08 13:00:00 24.8 9 Nordeste 23 Nordeste 0 -- -- 48
2020-05-08 12:00:00 23.7 5 Nordeste 17 Nordeste 0 -- -- 52
2020-05-08 11:00:00 21.1 7 Este 17 Nordeste 0 -- -- 55
2020-05-08 10:00:00 19.6 4 Norte 9 Nordeste 0 -- -- 59
2020-05-08 09:00:00 16 3 Oeste 11 Sudoeste 0 -- -- 70
2020-05-08 08:00:00 13 8 Sudoeste 13 Sudoeste 0 -- -- 77
2020-05-08 07:00:00 12.3 6 Sudoeste 9 Sudoeste 0 -- -- 80
2020-05-08 06:00:00 13.5 0 Calma 6 Norte 0 -- -- 76
2020-05-08 05:00:00 15 2 Norte 20 Sudeste 0 -- -- 68
2020-05-08 04:00:00 16.3 14 Sudeste 26 Este 0 -- -- 63
2020-05-08 03:00:00 17.1 18 Sudeste 34 Sudeste 0 -- -- 58
2020-05-08 02:00:00 17.9 23 Sudeste 36 Sudeste 0 -- -- 55
2020-05-08 01:00:00 19.3 20 Sudeste 35 Sudeste 0 -- -- 54
2020-05-08 00:00:00 19.7 25 Este 32 Este 0 -- -- 52
2020-05-07 23:00:00 21.1 17 Este 38 Este 0 -- -- 50
2020-05-07 22:00:00 21.6 24 Sudeste 33 Sudeste 0 -- -- 52
2020-05-07 21:00:00 23.2 15 Este 28 Sudeste 0 -- -- 47
2020-05-07 20:00:00 24.5 20 Sudeste 35 Sudeste 0 -- -- 46
2020-05-07 19:00:00 26.7 22 Sudeste 37 Este 0 -- -- 42
2020-05-07 18:00:00 27.5 25 Este 37 Este 0 -- -- 40
2020-05-07 17:00:00 28.8 21 Sudeste 36 Este 0 -- -- 37
2020-05-07 16:00:00 29.7 19 Sudeste 41 Sudeste 0 -- -- 32
2020-05-07 15:00:00 28.4 17 Sudeste 34 Este 0 -- -- 37
2020-05-07 14:00:00 26.8 18 Nordeste 30 Nordeste 0 -- -- 45
2020-05-07 13:00:00 25.8 11 Este 23 Este 0 -- -- 46
2020-05-07 12:00:00 25 4 Nordeste 12 Este 0 -- -- 49
2020-05-07 11:00:00 23 3 Noroeste 10 Noroeste 0 -- -- 51
2020-05-07 10:00:00 21 4 Norte 10 Sudoeste 0 -- -- 57
2020-05-07 09:00:00 17.3 6 Sudoeste 9 Sudoeste 0 -- -- 61
2020-05-07 08:00:00 14 5 Sudoeste 9 Sudoeste 0 -- -- 68
2020-05-07 07:00:00 13.8 7 Sudoeste 11 Sudoeste 0 -- -- 66
2020-05-07 06:00:00 14.2 8 Oeste 18 Sudoeste 0 -- -- 63
2020-05-07 05:00:00 14.5 10 Sudoeste 14 Sudoeste 0 -- -- 62
2020-05-07 04:00:00 15.1 5 Sudoeste 8 Sudoeste 0 -- -- 57
2020-05-07 03:00:00 16 0 Calma 10 Sudoeste 0 -- -- 54
2020-05-07 02:00:00 16.6 7 Sudoeste 20 Sudoeste 0 -- -- 52
2020-05-07 01:00:00 17.4 12 Sudoeste 18 Sudoeste 0 -- -- 49
2020-05-07 00:00:00 18.8 9 Sudoeste 16 Nordeste 0 -- -- 46
2020-05-06 23:00:00 19.7 9 Sudoeste 20 Nordeste 0 -- -- 43
2020-05-06 22:00:00 22.4 6 Sudoeste 9 Sudoeste 0 -- -- 34
2020-05-06 21:00:00 24.8 3 Oeste 8 Norte 0 -- -- 34
2020-05-06 20:00:00 26.9 4 Norte 13 Norte 0 -- -- 29
2020-05-06 19:00:00 28.4 6 Norte 17 Norte 0 -- -- 26
2020-05-06 18:00:00 30.4 5 Norte 19 Noroeste 0 -- -- 26
2020-05-06 17:00:00 31 5 Noroeste 18 Norte 0 -- -- 27
2020-05-06 16:00:00 30.2 6 Norte 17 Noroeste 0 -- -- 25
2020-05-06 15:00:00 30 5 Noroeste 18 Norte 0 -- -- 29
2020-05-06 14:00:00 29.1 6 Noroeste 19 Noroeste 0 -- -- 30
2020-05-06 13:00:00 27.8 5 Noroeste 17 Norte 0 -- -- 34
2020-05-06 12:00:00 26.3 5 Norte 16 Noroeste 0 -- -- 37
2020-05-06 11:00:00 24.1 6 Oeste 15 Sudoeste 0 -- -- 42
2020-05-06 10:00:00 21.8 2 Nordeste 6 Nordeste 0 -- -- 47
2020-05-06 09:00:00 18.8 3 Nordeste 9 Oeste 0 -- -- 53
2020-05-06 08:00:00 15 6 Oeste 17 Sudoeste 0 -- -- 59
2020-05-06 07:00:00 13.9 13 Sudoeste 21 Sudoeste 0 -- -- 61
2020-05-06 06:00:00 14.9 14 Oeste 22 Sudoeste 0 -- -- 60
2020-05-06 05:00:00 15.8 16 Sudoeste 21 Sudoeste 0 -- -- 63
2020-05-06 04:00:00 17.3 12 Sudoeste 19 Sudoeste 0 -- -- 58
2020-05-06 03:00:00 17.3 10 Oeste 20 Sudoeste 0 -- -- 72
2020-05-06 02:00:00 17.7 14 Sudoeste 23 Sudoeste 0 -- -- 71
2020-05-06 01:00:00 17.6 10 Oeste 20 Sudoeste 0 -- -- 71
2020-05-06 00:00:00 18.6 9 Sudoeste 14 Sudoeste 0 -- -- 67
2020-05-05 23:00:00 20.1 5 Sudoeste 9 Oeste 0 -- -- 61
2020-05-05 22:00:00 22.6 5 Sudoeste 10 Sudeste 0 -- -- 50
2020-05-05 21:00:00 24.1 8 Sudeste 10 Nordeste 0 -- -- 46
2020-05-05 20:00:00 26.2 3 Nordeste 11 Sudeste 0 -- -- 41
2020-05-05 19:00:00 27.1 7 Este 19 Este 0 -- -- 40
2020-05-05 18:00:00 27.9 5 Norte 18 Nordeste 0 -- -- 37
2020-05-05 17:00:00 28.4 4 Norte 10 Nordeste 0 -- -- 37
2020-05-05 16:00:00 27.8 3 Norte 10 Nordeste 0 -- -- 38
2020-05-05 15:00:00 27.7 4 Norte 16 Norte 0 -- -- 42
2020-05-05 14:00:00 26.4 4 Noroeste 14 Noroeste 0 -- -- 45
2020-05-05 13:00:00 26.3 5 Noroeste 19 Norte 0 -- -- 43
2020-05-05 12:00:00 26.6 5 Noroeste 22 Oeste 0 -- -- 42
2020-05-05 11:00:00 23.9 6 Noroeste 19 Noroeste 0 -- -- 48
2020-05-05 10:00:00 21 6 Norte 16 Oeste 0 -- -- 67
2020-05-05 09:00:00 18.9 3 Oeste 10 Noroeste 0 -- -- 71
2020-05-05 08:00:00 15.5 3 Oeste 8 Sudoeste 0 -- -- 85
2020-05-05 07:00:00 15.1 5 Sudoeste 10 Sudoeste 0 -- -- 86
2020-05-05 06:00:00 15.3 6 Sudoeste 10 Sudoeste 0 -- -- 88
2020-05-05 05:00:00 15.4 4 Sur 9 Sudoeste 0 -- -- 87
2020-05-05 04:00:00 15.9 3 Oeste 6 Sudoeste 0 -- -- 84
2020-05-05 03:00:00 16.7 0 Calma 6 Noroeste 0 -- -- 81
2020-05-05 02:00:00 17.5 3 Noroeste 14 Nordeste 0 -- -- 79
2020-05-05 01:00:00 18.4 6 Este 12 Este 0 -- -- 77
2020-05-05 00:00:00 19.6 0 Calma 8 Sudoeste 0 -- -- 75
2020-05-04 23:00:00 20.1 6 Sudoeste 11 Sudoeste 0 -- -- 75
2020-05-04 22:00:00 22.3 3 Norte 10 Nordeste 0 -- -- 66
2020-05-04 21:00:00 24.6 3 Oeste 8 Oeste 0 -- -- 65
2020-05-04 20:00:00 26 4 Nordeste 19 Nordeste 0 -- -- 60
2020-05-04 19:00:00 26.8 19 Nordeste 33 Nordeste 0 -- -- 57
2020-05-04 18:00:00 27.8 23 Este 36 Nordeste 0 -- -- 51
2020-05-04 17:00:00 29.5 6 Nordeste 30 Este 0 -- -- 48
2020-05-04 16:00:00 29.7 18 Nordeste 28 Este 0 -- -- 45
2020-05-04 15:00:00 28.6 13 Nordeste 23 Nordeste 0 -- -- 49
2020-05-04 14:00:00 27.6 10 Nordeste 22 Este 0 -- -- 50
2020-05-04 13:00:00 26.1 9 Este 22 Este 0 -- -- 55
2020-05-04 12:00:00 24.5 8 Nordeste 16 Nordeste 0 -- -- 56
2020-05-04 11:00:00 22.2 6 Nordeste 13 Nordeste 0 -- -- 64
2020-05-04 10:00:00 20.3 4 Nordeste 9 Nordeste 0 -- -- 70
2020-05-04 09:00:00 17.6 2 Oeste 5 Sudoeste 0 -- -- 79
2020-05-04 08:00:00 14.6 3 Sudoeste 7 Sudoeste 0 -- -- 90
2020-05-04 07:00:00 14 4 Sudoeste 8 Oeste 0 -- -- 91
2020-05-04 06:00:00 14.6 4 Sudoeste 8 Oeste 0 -- -- 90
2020-05-04 05:00:00 15.1 5 Sudoeste 8 Sudoeste 0 -- -- 89
2020-05-04 04:00:00 15.5 3 Oeste 8 Oeste 0 -- -- 87
2020-05-04 03:00:00 16.7 2 Oeste 5 Oeste 0 -- -- 83
2020-05-04 02:00:00 17.6 3 Oeste 8 Oeste 0 -- -- 81
2020-05-04 01:00:00 18.5 3 Noroeste 10 Oeste 0 -- -- 78
2020-05-04 00:00:00 19.8 4 Este 13 Nordeste 0 -- -- 71
2020-05-03 23:00:00 21.1 9 Nordeste 14 Nordeste 0 -- -- 69
2020-05-03 22:00:00 23.6 4 Este 12 Este 0 -- -- 58
2020-05-03 21:00:00 25.8 10 Este 17 Este 0 -- -- 49
2020-05-03 20:00:00 27.6 10 Este 20 Este 0 -- -- 39
2020-05-03 19:00:00 28.4 13 Este 22 Este 0 -- -- 38
2020-05-03 18:00:00 29.1 13 Este 24 Nordeste 0 -- -- 38
2020-05-03 17:00:00 29.5 7 Este 19 Este 0 -- -- 38
2020-05-03 16:00:00 29 7 Este 27 Nordeste 0 -- -- 38
2020-05-03 15:00:00 29.3 6 Norte 20 Nordeste 0 -- -- 38
2020-05-03 14:00:00 28 5 Norte 17 Nordeste 0 -- -- 42
2020-05-03 13:00:00 26.6 4 Norte 12 Norte 0 -- -- 44
2020-05-03 12:00:00 25.5 4 Norte 9 Norte 0 -- -- 50
2020-05-03 11:00:00 23.1 3 Norte 8 Sudeste 0 -- -- 53
2020-05-03 10:00:00 21.3 4 Norte 8 Norte 0 -- -- 59
2020-05-03 09:00:00 18.6 3 Oeste 5 Oeste 0 -- -- 71
2020-05-03 08:00:00 15.4 0 Calma 12 Oeste 0 -- -- 79
2020-05-03 07:00:00 14.8 9 Oeste 13 Oeste 0 -- -- 80
2020-05-03 06:00:00 16.6 5 Oeste 12 Oeste 0 -- -- 70
2020-05-03 05:00:00 17.2 9 Oeste 16 Sudoeste 0 -- -- 69
2020-05-03 04:00:00 17.5 9 Sudoeste 22 Oeste 0 -- -- 69
2020-05-03 03:00:00 18 9 Sudoeste 24 Sudoeste 0 -- -- 71
2020-05-03 02:00:00 18.5 9 Oeste 17 Oeste 0 -- -- 70
2020-05-03 01:00:00 20 11 Sudoeste 17 Sudoeste 0 -- -- 65
2020-05-03 00:00:00 20.1 9 Sudoeste 19 Noroeste 0 -- -- 66
2020-05-02 23:00:00 20.9 8 Oeste 21 Noroeste 0 -- -- 63
2020-05-02 22:00:00 22 9 Oeste 15 Oeste 0 -- -- 58
2020-05-02 21:00:00 24.3 5 Noroeste 17 Noroeste 0 -- -- 49
2020-05-02 20:00:00 26.4 5 Noroeste 27 Oeste 0 -- -- 40
2020-05-02 19:00:00 28.3 7 Noroeste 28 Oeste 0 -- -- 36
2020-05-02 18:00:00 30.2 9 Noroeste 22 Oeste 0 -- -- 36
2020-05-02 17:00:00 30.6 8 Noroeste 24 Noroeste 0 -- -- 36
2020-05-02 16:00:00 30.3 8 Noroeste 31 Oeste 0 -- -- 36
2020-05-02 15:00:00 29.8 12 Noroeste 33 Oeste 0 -- -- 35
2020-05-02 14:00:00 28.3 11 Noroeste 24 Norte 0 -- -- 39
2020-05-02 13:00:00 27.2 8 Noroeste 34 Oeste 0 -- -- 42
2020-05-02 12:00:00 26.2 13 Noroeste 32 Oeste 0 -- -- 44
2020-05-02 11:00:00 24.5 8 Noroeste 36 Oeste 0 -- -- 48
2020-05-02 10:00:00 22.6 14 Oeste 47 Oeste 0 -- -- 53
2020-05-02 09:00:00 19.8 28 Oeste 43 Oeste 0 -- -- 60
2020-05-02 08:00:00 17.6 12 Oeste 20 Oeste 0 -- -- 67
2020-05-02 07:00:00 16.4 10 Oeste 18 Oeste 0 -- -- 71
2020-05-02 06:00:00 16.5 5 Noroeste 28 Oeste 0 -- -- 72
2020-05-02 05:00:00 18.1 19 Oeste 35 Oeste 0 -- -- 66
2020-05-02 04:00:00 17.7 20 Oeste 31 Oeste 0 -- -- 70
2020-05-02 03:00:00 16.9 6 Sudoeste 18 Oeste 0 -- -- 76
2020-05-02 02:00:00 18 12 Oeste 18 Oeste 0 -- -- 72
2020-05-02 01:00:00 18.4 9 Oeste 20 Oeste 0 -- -- 74
2020-05-02 00:00:00 19.2 4 Noroeste 17 Noroeste 0 -- -- 68
2020-05-01 23:00:00 21.4 17 Oeste 32 Oeste 0 -- -- 56
2020-05-01 22:00:00 21.9 14 Oeste 28 Oeste 0 -- -- 53
2020-05-01 21:00:00 23.5 17 Oeste 41 Oeste 0 -- -- 48
2020-05-01 20:00:00 25.1 24 Oeste 48 Oeste 0 -- -- 43
2020-05-01 19:00:00 26.4 23 Oeste 45 Oeste 0 -- -- 42
2020-05-01 18:00:00 26 30 Oeste 57 Oeste 0 -- -- 42
2020-05-01 17:00:00 27.2 33 Oeste 58 Oeste 0 -- -- 40
2020-05-01 16:00:00 27.6 27 Oeste 63 Oeste 0 -- -- 38
2020-05-01 15:00:00 27.4 31 Oeste 55 Oeste 0 -- -- 38
2020-05-01 14:00:00 27.4 22 Noroeste 62 Oeste 0 -- -- 41
2020-05-01 13:00:00 25.4 34 Oeste 63 Oeste 0 -- -- 43
2020-05-01 12:00:00 24.8 22 Oeste 48 Oeste 0 -- -- 47
2020-05-01 11:00:00 22.9 5 Norte 14 Norte 0 -- -- 47
2020-05-01 10:00:00 20.1 8 Oeste 17 Noroeste 0 -- -- 54
2020-05-01 09:00:00 19.4 4 Noroeste 30 Oeste 0 -- -- 56
2020-05-01 08:00:00 16.6 18 Oeste 28 Sudoeste 0 -- -- 60
2020-05-01 07:00:00 15.5 3 Noroeste 20 Oeste 0 -- -- 64
2020-05-01 06:00:00 15.2 6 Oeste 14 Oeste 0 -- -- 65
2020-05-01 05:00:00 15.7 5 Oeste 13 Sudoeste 0 -- -- 63
2020-05-01 04:00:00 16.2 5 Noroeste 17 Sudoeste 0 -- -- 61
2020-05-01 03:00:00 16.7 14 Sudoeste 29 Sudoeste 0 -- -- 59
2020-05-01 02:00:00 16.7 17 Sudoeste 28 Sudoeste 0 -- -- 60
2020-05-01 01:00:00 16.8 13 Sudoeste 24 Sudoeste 0 -- -- 59
2020-05-01 00:00:00 17.8 17 Sudoeste 21 Sudoeste 0 -- -- 55
2020-04-30 23:00:00 17.2 8 Sudoeste 23 Oeste 0 -- -- 55
2020-04-30 22:00:00 17.6 12 Oeste 21 Oeste 0 -- -- 55
2020-04-30 21:00:00 19.6 10 Oeste 18 Oeste 0 -- -- 48
2020-04-30 20:00:00 21.2 10 Oeste 35 Oeste 0 -- -- 44
2020-04-30 19:00:00 22.8 18 Oeste 39 Oeste 0 -- -- 39
2020-04-30 18:00:00 23.7 14 Noroeste 41 Oeste 0 -- -- 38
2020-04-30 17:00:00 24.5 15 Noroeste 44 Oeste 0 -- -- 38
2020-04-30 16:00:00 23.1 13 Noroeste 46 Oeste 0 -- -- 38
2020-04-30 15:00:00 22.9 17 Noroeste 40 Oeste 0 -- -- 39
2020-04-30 14:00:00 23.5 18 Oeste 45 Oeste 0 -- -- 39
2020-04-30 13:00:00 22.9 28 Oeste 46 Oeste 0 -- -- 37
2020-04-30 12:00:00 22 6 Noroeste 26 Oeste 0 -- -- 47
2020-04-30 11:00:00 20.8 9 Noroeste 24 Norte 0 -- -- 51
2020-04-30 10:00:00 17.4 4 Noroeste 17 Oeste 0 -- -- 61
2020-04-30 09:00:00 15.9 6 Noroeste 20 Noroeste 0 -- -- 65
2020-04-30 08:00:00 15.2 7 Noroeste 17 Oeste 0 -- -- 67
2020-04-30 07:00:00 15.3 11 Oeste 17 Oeste 0 -- -- 64
2020-04-30 06:00:00 14.8 6 Sudoeste 10 Oeste 0 -- -- 67
2020-04-30 05:00:00 15.5 3 Oeste 18 Oeste 0 -- -- 62
2020-04-30 04:00:00 15.8 12 Oeste 24 Noroeste 0 -- -- 60
2020-04-30 03:00:00 16.6 9 Sudoeste 23 Sudoeste 0 -- -- 55
2020-04-30 02:00:00 16.9 12 Oeste 26 Oeste 0 -- -- 54
2020-04-30 01:00:00 17.7 16 Sudoeste 29 Oeste 0 -- -- 49
2020-04-30 00:00:00 18 16 Oeste 37 Oeste 0 -- -- 48
2020-04-29 23:00:00 18.5 12 Oeste 24 Oeste 0 -- -- 47
2020-04-29 22:00:00 19.8 11 Sudoeste 24 Oeste 0 -- -- 43
2020-04-29 21:00:00 20.7 8 Sudoeste 19 Oeste 0 -- -- 40
2020-04-29 20:00:00 22 15 Oeste 33 Oeste 0 -- -- 37
2020-04-29 19:00:00 23.7 21 Oeste 32 Oeste 0 -- -- 32
2020-04-29 18:00:00 25.1 11 Oeste 25 Oeste 0 -- -- 35
2020-04-29 17:00:00 26 9 Noroeste 23 Oeste 0 -- -- 36
2020-04-29 16:00:00 25.3 7 Noroeste 24 Norte 0 -- -- 35
2020-04-29 15:00:00 24.2 7 Noroeste 29 Noroeste 0 -- -- 37
2020-04-29 14:00:00 23.4 12 Noroeste 33 Oeste 0 -- -- 38
2020-04-29 13:00:00 22.3 14 Oeste 35 Oeste 0 -- -- 39
2020-04-29 12:00:00 20.7 12 Noroeste 31 Norte 0 -- -- 44
2020-04-29 11:00:00 18.2 12 Oeste 31 Oeste 0 -- -- 48
2020-04-29 10:00:00 16.1 17 Oeste 32 Oeste 0 -- -- 51
2020-04-29 09:00:00 14.4 22 Oeste 33 Oeste 0 -- -- 55
2020-04-29 08:00:00 12.3 20 Sudoeste 30 Oeste 0 -- -- 61
2020-04-29 07:00:00 11.6 14 Sudoeste 27 Oeste 0 -- -- 62
2020-04-29 06:00:00 12.3 20 Oeste 30 Oeste 0 -- -- 59
2020-04-29 05:00:00 12.6 21 Oeste 33 Oeste 0 -- -- 61
2020-04-29 04:00:00 13.5 22 Oeste 32 Oeste 0 -- -- 59
2020-04-29 03:00:00 13.8 19 Oeste 28 Oeste 0 -- -- 57
2020-04-29 02:00:00 12.3 14 Oeste 22 Oeste 0 -- -- 62
2020-04-29 01:00:00 13.4 8 Noroeste 27 Oeste 0 -- -- 58
2020-04-29 00:00:00 14.6 17 Oeste 24 Oeste 0 -- -- 52
2020-04-28 23:00:00 14.9 12 Oeste 19 Oeste 0 -- -- 53
2020-04-28 22:00:00 16.1 13 Oeste 26 Oeste 0 -- -- 53
2020-04-28 21:00:00 18 13 Oeste 26 Oeste 0 -- -- 46
2020-04-28 20:00:00 19.7 12 Oeste 24 Oeste 0 -- -- 40
2020-04-28 19:00:00 21.2 10 Noroeste 33 Oeste 0 -- -- 40
2020-04-28 18:00:00 20.5 12 Noroeste 32 Oeste 0 -- -- 40
2020-04-28 17:00:00 21.1 13 Noroeste 31 Oeste 0 -- -- 43
2020-04-28 16:00:00 22 10 Noroeste 30 Oeste 0 -- -- 44
2020-04-28 15:00:00 20.9 11 Oeste 24 Oeste 0 -- -- 46
2020-04-28 14:00:00 18.5 9 Noroeste 21 Noroeste 0 -- -- 50
2020-04-28 13:00:00 19.5 8 Noroeste 35 Noroeste 0 -- -- 48
2020-04-28 12:00:00 19.6 16 Oeste 45 Oeste 0 -- -- 49
2020-04-28 11:00:00 17.7 30 Oeste 49 Oeste 0 -- -- 51
2020-04-28 10:00:00 17.1 19 Oeste 42 Oeste 0 -- -- 54
2020-04-28 09:00:00 15.3 18 Oeste 27 Oeste 0 -- -- 61
2020-04-28 08:00:00 11.8 10 Oeste 17 Sudoeste 0 -- -- 71
2020-04-28 07:00:00 10.7 8 Oeste 14 Oeste 0 -- -- 75
2020-04-28 06:00:00 10.6 3 Sudoeste 10 Sudoeste 0 -- -- 76
2020-04-28 05:00:00 10.8 9 Sudoeste 17 Oeste 0 -- -- 78
2020-04-28 04:00:00 11.9 7 Oeste 24 Oeste 0 -- -- 73
2020-04-28 03:00:00 12.5 12 Oeste 23 Oeste 0 -- -- 70
2020-04-28 02:00:00 13.4 13 Oeste 23 Oeste 0 -- -- 68
2020-04-28 01:00:00 14.1 3 Noroeste 14 Oeste 0 -- -- 70
2020-04-28 00:00:00 14.3 6 Noroeste 13 Oeste 0 -- -- 76